Portada
METAR-TAF:

METAR-TAF

Aeroports :

Chiang Mai, Tailàndia

latitud: 18-47N, longitud: 098-59E, altitud: 312 m

Observació

L'informe es va fer fa 16 minuts, a les 17:30 UTC
Vent calma
Temperatura 25°C
Humitat 83%
Pressió 1015 hPa
Visibilitat 10 km o més
Escasses núvols a una alçada de 3500 ft

METAR: VTCC 231730Z 00000KT 9999 FEW035 25/22 Q1015 NOSIG

Hora: 00:46 (17:46 UTC)

Pronòstic

L'informe es va fer fa 46 minuts, a les 17:00 UTC
Pronòstic vàlid del 23 a les 18 UTC al 24 a les 24 UTC
Vent 5 kt del Oest/Sud-Oest
Visibilitat 10 km o més
Escasses núvols a una alçada de 3500 ft
Temporalment
l' 24 a les 09 UTC al 24 a les 12 UTC
Vent 15 kt amb direcció variable amb ràfegues de 30 kt
Visibilitat: 4000 m
Escasses núvols a una alçada de 2000 ft, Cumulonimbus.
Cel ennuvolat a una alçada de 3000 ft
tempesta, pluja

TAF: VTCC 231700Z 2318/2424 24005KT 9999 FEW035 TEMPO 2409/2412 VRB15G30KT 4000 TSRA FEW020CB BKN030

Observacions i pronòstics meteorològics de més de 4000 aeroports (METAR i TAF).

Les estacions disponibles són els punts grocs i vermells al mapa.

Posi el ratolí al punt desitjat per veure el nom de l'estació.

Feu clic per veure les observacions i els pronòstics meteorològics.

Per canviar el mapa: feu clic els botons verds amb una creu de color negre per apropar; al botó verd amb un guió per allunyar la imatge; o en les fletxes verdes per a mapes adjacents.


METAR-TAF: